Time;durP1;ratioP1;P1;durP2;ratioP2;P2;SDS_P1;SDS_P2;PMS_P1;PMS_P2;Temp;Humidity;BMP_temperature;BMP_pressure;BME280_temperature;BME280_humidity;BME280_pressure;Samples;Min_cycle;Max_cycle;Signal;HPM_P1;HPM_P2
2024/02/12 06:02:02;;;;;;;2.23;1.93;;;;;;;;;;5284022;23;20495;-76
2024/02/12 06:04:29;;;;;;;2.23;1.70;;;;;;;;;;4956912;29;20947;-76
2024/02/12 06:06:55;;;;;;;2.53;1.97;;;;;;;;;;4956869;29;20409;-76
2024/02/12 06:09:21;;;;;;;6.53;2.23;;;;;;;;;;4955522;29;20411;-76
2024/02/12 06:11:47;;;;;;;7.17;2.93;;;;;;;;;;4955397;29;20440;-76
2024/02/12 06:14:13;;;;;;;6.67;2.33;;;;;;;;;;4956948;28;20420;-77
2024/02/12 06:16:39;;;;;;;4.23;2.43;;;;;;;;;;4956868;28;20424;-77
2024/02/12 06:19:07;;;;;;;6.47;2.60;;;;;;;;;;4956894;28;20931;-77
2024/02/12 06:21:35;;;;;;;3.90;2.70;;;;;;;;;;4956279;28;20443;-77
2024/02/12 06:24:01;;;;;;;4.87;3.00;;;;;;;;;;4957844;28;20836;-77
2024/02/12 06:26:27;;;;;;;4.47;3.10;;;;;;;;;;4956529;29;20560;-77
2024/02/12 06:28:52;;;;;;;5.90;2.87;;;;;;;;;;4956324;28;20934;-77
2024/02/12 06:31:18;;;;;;;5.30;2.27;;;;;;;;;;4955067;29;20452;-77
2024/02/12 06:33:44;;;;;;;9.27;3.00;;;;;;;;;;4956235;29;20419;-77
2024/02/12 06:36:10;;;;;;;6.57;3.00;;;;;;;;;;4956648;29;20424;-77
2024/02/12 06:38:37;;;;;;;5.53;2.40;;;;;;;;;;4955340;28;20435;-77
2024/02/12 06:41:03;;;;;;;5.67;3.50;;;;;;;;;;4956034;28;20440;-77
2024/02/12 06:43:29;;;;;;;4.27;2.50;;;;;;;;;;4956212;29;20472;-77
2024/02/12 06:45:55;;;;;;;10.07;3.17;;;;;;;;;;4956038;28;20563;-77
2024/02/12 06:48:21;;;;;;;6.47;2.67;;;;;;;;;;4956610;29;20417;-77
2024/02/12 06:50:46;;;;;;;4.40;2.60;;;;;;;;;;4961536;28;20428;-77
2024/02/12 06:53:12;;;;;;;9.00;3.50;;;;;;;;;;4954783;29;20459;-77
2024/02/12 06:55:38;;;;;;;4.73;2.47;;;;;;;;;;4955672;28;20417;-77
2024/02/12 06:58:04;;;;;;;10.80;4.00;;;;;;;;;;4956141;29;20919;-77
2024/02/12 07:00:31;;;;;;;3.47;2.30;;;;;;;;;;4955482;29;20967;-77
2024/02/12 07:02:57;;;;;;;6.93;3.03;;;;;;;;;;4956382;28;20456;-77
2024/02/12 07:05:23;;;;;;;6.17;3.10;;;;;;;;;;4954305;28;20528;-77
2024/02/12 07:07:49;;;;;;;2.63;2.50;;;;;;;;;;4956014;28;20420;-77
2024/02/12 07:10:15;;;;;;;7.03;2.70;;;;;;;;;;4955268;29;20416;-77
2024/02/12 07:12:41;;;;;;;4.13;3.07;;;;;;;;;;4955568;29;20483;-77
2024/02/12 07:15:07;;;;;;;7.27;3.50;;;;;;;;;;4955594;28;20416;-77
2024/02/12 07:17:33;;;;;;;11.60;4.87;;;;;;;;;;4955654;28;20923;-77
2024/02/12 07:19:59;;;;;;;15.67;5.23;;;;;;;;;;4955534;28;20500;-77
2024/02/12 07:22:25;;;;;;;12.37;5.40;;;;;;;;;;4955918;28;20468;-77
2024/02/12 07:24:51;;;;;;;16.07;5.37;;;;;;;;;;4963009;28;20460;-77
2024/02/12 07:27:21;;;;;;;12.73;4.90;;;;;;;;;;4964266;29;20417;-77
2024/02/12 07:29:47;;;;;;;8.63;4.47;;;;;;;;;;4960835;28;20428;-77
2024/02/12 07:32:14;;;;;;;7.30;3.33;;;;;;;;;;4954576;28;20944;-68
2024/02/12 07:34:39;;;;;;;14.57;5.90;;;;;;;;;;4954883;29;20495;-72
2024/02/12 07:37:06;;;;;;;6.47;4.30;;;;;;;;;;4954689;28;20500;-72
2024/02/12 07:39:32;;;;;;;12.70;5.00;;;;;;;;;;4954951;28;20397;-73
2024/02/12 07:41:59;;;;;;;7.93;4.70;;;;;;;;;;4954614;28;20440;-73
2024/02/12 07:44:25;;;;;;;6.43;3.87;;;;;;;;;;4947368;28;20440;-70
2024/02/12 07:46:51;;;;;;;9.30;3.60;;;;;;;;;;4946918;29;20643;-70
2024/02/12 07:49:19;;;;;;;6.63;3.83;;;;;;;;;;4945380;29;20504;-70
2024/02/12 07:51:45;;;;;;;4.90;2.90;;;;;;;;;;4951178;28;20967;-68
2024/02/12 07:54:11;;;;;;;6.23;2.90;;;;;;;;;;4954672;29;20448;-68
2024/02/12 07:56:36;;;;;;;3.17;2.00;;;;;;;;;;4946843;28;20504;-68
2024/02/12 07:59:03;;;;;;;5.13;3.07;;;;;;;;;;4954368;28;20436;-73
2024/02/12 08:01:29;;;;;;;5.00;2.50;;;;;;;;;;4955530;28;20468;-72
2024/02/12 08:03:56;;;;;;;5.73;3.23;;;;;;;;;;4964786;29;20511;-72
2024/02/12 08:06:22;;;;;;;3.73;2.57;;;;;;;;;;4952373;28;21095;-72
2024/02/12 08:08:48;;;;;;;4.07;2.13;;;;;;;;;;4951331;28;20413;-70
2024/02/12 08:11:15;;;;;;;3.80;2.30;;;;;;;;;;4954108;28;20465;-70
2024/02/12 08:13:42;;;;;;;4.13;2.40;;;;;;;;;;4954408;28;20515;-77
2024/02/12 08:16:08;;;;;;;3.10;2.13;;;;;;;;;;4954390;28;20467;-76
2024/02/12 08:18:36;;;;;;;3.47;2.00;;;;;;;;;;4950075;29;20424;-76
2024/02/12 08:21:02;;;;;;;4.03;2.03;;;;;;;;;;4952098;28;20436;-75
2024/02/12 08:23:28;;;;;;;2.80;2.20;;;;;;;;;;4944431;29;20525;-77
2024/02/12 08:25:54;;;;;;;4.40;2.07;;;;;;;;;;4953068;28;20543;-77
2024/02/12 08:28:24;;;;;;;3.33;2.10;;;;;;;;;;4952803;29;20483;-76
2024/02/12 08:30:50;;;;;;;2.07;1.80;;;;;;;;;;4953828;28;20505;-76
2024/02/12 08:33:16;;;;;;;6.87;2.20;;;;;;;;;;4955120;29;20456;-77
2024/02/12 08:35:42;;;;;;;3.53;2.17;;;;;;;;;;4954359;29;20409;-76
2024/02/12 08:38:11;;;;;;;6.03;1.80;;;;;;;;;;4954243;29;20519;-70
2024/02/12 08:40:37;;;;;;;5.90;2.70;;;;;;;;;;4953843;29;20432;-72
2024/02/12 08:43:04;;;;;;;2.53;2.00;;;;;;;;;;4954041;29;20432;-71
2024/02/12 08:45:30;;;;;;;5.60;2.10;;;;;;;;;;4948167;29;20984;-71
2024/02/12 08:47:56;;;;;;;4.27;1.80;;;;;;;;;;4948230;29;20428;-71
2024/02/12 08:50:21;;;;;;;2.07;1.73;;;;;;;;;;4953916;29;20421;-72
2024/02/12 08:52:49;;;;;;;3.20;1.77;;;;;;;;;;4954058;29;20427;-71
2024/02/12 08:55:16;;;;;;;2.93;2.30;;;;;;;;;;4953978;28;20472;-71
2024/02/12 08:57:42;;;;;;;2.10;1.53;;;;;;;;;;4953634;28;20480;-71
2024/02/12 09:00:21;;;;;;;5.73;1.50;;;;;;;;;;4953458;29;20431;-71
2024/02/12 09:02:47;;;;;;;3.60;1.30;;;;;;;;;;4953587;28;20515;-71
2024/02/12 09:05:13;;;;;;;2.17;1.40;;;;;;;;;;4945102;29;20559;-71
2024/02/12 09:07:43;;;;;;;2.43;1.70;;;;;;;;;;4940199;29;20504;-71
2024/02/12 09:10:11;;;;;;;2.67;1.60;;;;;;;;;;4953612;28;20480;-71
2024/02/12 09:12:38;;;;;;;1.97;1.40;;;;;;;;;;4953997;28;20416;-71
2024/02/12 09:15:08;;;;;;;2.70;2.07;;;;;;;;;;4954047;28;20912;-70
2024/02/12 09:17:37;;;;;;;2.60;1.47;;;;;;;;;;4954294;28;20428;-71
2024/02/12 09:20:04;;;;;;;1.67;1.43;;;;;;;;;;4956701;28;20467;-71
2024/02/12 09:22:33;;;;;;;3.43;1.60;;;;;;;;;;4957823;28;20449;-73
2024/02/12 09:24:59;;;;;;;1.43;1.30;;;;;;;;;;4963866;28;20476;-72
2024/02/12 09:27:28;;;;;;;2.30;1.60;;;;;;;;;;4958135;29;20491;-73
2024/02/12 09:29:54;;;;;;;2.90;1.60;;;;;;;;;;4962180;28;20412;-73
2024/02/12 09:32:19;;;;;;;1.70;1.60;;;;;;;;;;4976120;28;20441;-73
2024/02/12 09:34:45;;;;;;;4.93;2.13;;;;;;;;;;4974275;28;20436;-73
2024/02/12 09:37:11;;;;;;;1.80;1.50;;;;;;;;;;4976602;28;20489;-73
2024/02/12 09:39:37;;;;;;;2.93;1.60;;;;;;;;;;4960595;29;20463;-73
2024/02/12 09:42:04;;;;;;;1.90;1.60;;;;;;;;;;4975733;29;20496;-72
2024/02/12 09:44:31;;;;;;;3.93;1.63;;;;;;;;;;4964816;28;20518;-73
2024/02/12 09:47:04;;;;;;;1.97;1.40;;;;;;;;;;4957198;29;20491;-72
2024/02/12 09:49:32;;;;;;;1.37;1.27;;;;;;;;;;4957682;28;20432;-72
2024/02/12 09:51:58;;;;;;;5.97;1.67;;;;;;;;;;4947027;28;20437;-73
2024/02/12 09:54:26;;;;;;;3.93;1.80;;;;;;;;;;4953156;29;20428;-73
2024/02/12 09:56:52;;;;;;;2.43;1.47;;;;;;;;;;4938164;28;20909;-72
2024/02/12 09:59:18;;;;;;;1.67;1.40;;;;;;;;;;4952351;29;20871;-72
2024/02/12 10:01:44;;;;;;;2.10;1.60;;;;;;;;;;4956195;29;20464;-71
2024/02/12 10:04:10;;;;;;;3.43;1.77;;;;;;;;;;4956656;28;20430;-72
2024/02/12 10:06:38;;;;;;;3.17;1.90;;;;;;;;;;4956815;28;20838;-71
2024/02/12 10:09:06;;;;;;;2.50;2.10;;;;;;;;;;4956913;29;20444;-72
2024/02/12 10:11:32;;;;;;;2.53;1.80;;;;;;;;;;4953904;28;20528;-71
2024/02/12 10:14:04;;;;;;;2.20;1.90;;;;;;;;;;4947946;29;20516;-71
2024/02/12 10:16:30;;;;;;;2.50;1.80;;;;;;;;;;4937219;29;20458;-72
2024/02/12 10:18:58;;;;;;;2.40;2.17;;;;;;;;;;4947807;29;20424;-71
2024/02/12 10:21:24;;;;;;;1.70;1.70;;;;;;;;;;4954716;28;20448;-71
2024/02/12 10:23:53;;;;;;;3.80;2.20;;;;;;;;;;4956011;28;20476;-71
2024/02/12 10:26:22;;;;;;;6.10;1.73;;;;;;;;;;4956520;28;20478;-72
2024/02/12 10:28:55;;;;;;;2.27;1.90;;;;;;;;;;4971626;28;20445;-71
2024/02/12 10:31:23;;;;;;;3.97;2.20;;;;;;;;;;4967823;28;20520;-72
2024/02/12 10:33:51;;;;;;;5.77;1.93;;;;;;;;;;4960326;28;20480;-71
2024/02/12 10:36:21;;;;;;;3.40;2.03;;;;;;;;;;4956751;28;20877;-71
2024/02/12 10:38:49;;;;;;;2.53;1.87;;;;;;;;;;4952511;29;20408;-71
2024/02/12 10:41:22;;;;;;;2.33;2.03;;;;;;;;;;4955638;29;20485;-71
2024/02/12 10:43:48;;;;;;;2.40;1.90;;;;;;;;;;4955006;28;20427;-71
2024/02/12 10:46:14;;;;;;;2.93;2.10;;;;;;;;;;4955978;28;20575;-72
2024/02/12 10:48:44;;;;;;;7.80;2.20;;;;;;;;;;4950380;29;20414;-71
2024/02/12 10:51:10;;;;;;;1.60;1.53;;;;;;;;;;4955636;28;20444;-71
2024/02/12 10:53:39;;;;;;;5.23;2.73;;;;;;;;;;4956007;28;20432;-71
2024/02/12 10:56:08;;;;;;;2.23;2.07;;;;;;;;;;4956085;28;20444;-71
2024/02/12 10:58:34;;;;;;;2.40;1.87;;;;;;;;;;4955892;28;20442;-71
2024/02/12 11:01:01;;;;;;;3.80;2.00;;;;;;;;;;4953469;28;20464;-77
2024/02/12 11:03:36;;;;;;;4.77;1.83;;;;;;;;;;4953744;28;20428;-76
2024/02/12 11:06:04;;;;;;;6.60;2.53;;;;;;;;;;4956281;28;20467;-76
2024/02/12 11:08:35;;;;;;;3.23;2.23;;;;;;;;;;4956183;28;20838;-76
2024/02/12 11:11:03;;;;;;;5.03;2.77;;;;;;;;;;4944970;29;20456;-77
2024/02/12 11:13:37;;;;;;;2.53;2.07;;;;;;;;;;4949416;29;20440;-77
2024/02/12 11:16:04;;;;;;;2.67;1.60;;;;;;;;;;4956477;29;20416;-77
2024/02/12 11:18:35;;;;;;;5.60;1.97;;;;;;;;;;4958060;29;20775;-77
2024/02/12 11:21:01;;;;;;;3.50;2.00;;;;;;;;;;4953725;29;20476;-77
2024/02/12 11:23:28;;;;;;;3.50;1.70;;;;;;;;;;4955467;28;20483;-76
2024/02/12 11:26:05;;;;;;;2.90;2.10;;;;;;;;;;4936383;29;21031;-70
2024/02/12 11:28:32;;;;;;;6.27;1.90;;;;;;;;;;4955017;28;20595;-71
2024/02/12 11:30:58;;;;;;;4.10;2.73;;;;;;;;;;4953873;28;20449;-75
2024/02/12 11:33:24;;;;;;;4.00;1.97;;;;;;;;;;4955766;28;20762;-76
2024/02/12 11:36:06;;;;;;;6.43;2.00;;;;;;;;;;4955008;28;20483;-77
2024/02/12 11:38:32;;;;;;;4.10;2.13;;;;;;;;;;4955350;29;20420;-77
2024/02/12 11:41:01;;;;;;;5.83;2.43;;;;;;;;;;4954912;28;20444;-76
2024/02/12 11:43:29;;;;;;;13.70;2.07;;;;;;;;;;4954046;28;20416;-76
2024/02/12 11:46:01;;;;;;;7.47;2.50;;;;;;;;;;4954805;28;20473;-76
2024/02/12 11:48:28;;;;;;;5.33;2.30;;;;;;;;;;4954901;28;20452;-76
2024/02/12 11:50:57;;;;;;;4.53;2.37;;;;;;;;;;4954871;29;20437;-76
2024/02/12 11:53:25;;;;;;;4.30;2.53;;;;;;;;;;4955720;28;20706;-76
2024/02/12 11:55:51;;;;;;;6.77;2.30;;;;;;;;;;4953857;28;20448;-76
2024/02/12 11:58:17;;;;;;;3.17;1.90;;;;;;;;;;4952536;29;20511;-76
2024/02/12 12:00:44;;;;;;;4.43;2.00;;;;;;;;;;4954414;28;21036;-76
2024/02/12 12:03:17;;;;;;;5.80;2.37;;;;;;;;;;5077290;28;20512;-76
2024/02/12 12:05:44;;;;;;;4.70;2.30;;;;;;;;;;5090521;28;20426;-76
2024/02/12 12:08:10;;;;;;;2.13;1.90;;;;;;;;;;5089748;28;20497;-76
2024/02/12 12:10:36;;;;;;;4.97;2.13;;;;;;;;;;5067839;28;20442;-75
2024/02/12 12:13:02;;;;;;;3.57;2.10;;;;;;;;;;5050017;28;20911;-76
2024/02/12 12:15:29;;;;;;;2.00;1.67;;;;;;;;;;5055146;22;20481;-74
2024/02/12 12:17:56;;;;;;;5.67;2.30;;;;;;;;;;5029190;28;20402;-73
2024/02/12 12:20:25;;;;;;;5.50;3.03;;;;;;;;;;5028844;28;20912;-73
2024/02/12 12:22:53;;;;;;;3.27;2.30;;;;;;;;;;5028903;28;20456;-73
2024/02/12 12:25:19;;;;;;;4.00;2.03;;;;;;;;;;5045277;28;20446;-74
2024/02/12 12:27:45;;;;;;;4.20;2.00;;;;;;;;;;5049369;28;20412;-73
2024/02/12 12:30:16;;;;;;;5.73;2.27;;;;;;;;;;5050972;28;20400;-73
2024/02/12 12:32:42;;;;;;;11.43;2.93;;;;;;;;;;5048859;28;20408;-73
2024/02/12 12:35:09;;;;;;;7.20;2.47;;;;;;;;;;5048466;28;20437;-73
2024/02/12 12:37:35;;;;;;;8.17;2.07;;;;;;;;;;5046372;28;20509;-74
2024/02/12 12:40:08;;;;;;;4.93;2.00;;;;;;;;;;5028623;28;20405;-74
2024/02/12 12:42:34;;;;;;;4.17;2.17;;;;;;;;;;5027546;28;20472;-73
2024/02/12 12:45:00;;;;;;;7.50;2.50;;;;;;;;;;5027422;28;20823;-74
2024/02/12 12:47:26;;;;;;;2.23;1.70;;;;;;;;;;5028310;28;20413;-73
2024/02/12 12:49:56;;;;;;;3.60;2.10;;;;;;;;;;5035687;28;20421;-75
2024/02/12 12:52:22;;;;;;;6.13;1.87;;;;;;;;;;5028899;28;20790;-76
2024/02/12 12:54:48;;;;;;;2.30;1.80;;;;;;;;;;5032216;28;20437;-74
2024/02/12 12:57:16;;;;;;;3.23;1.80;;;;;;;;;;5047292;28;20416;-75
2024/02/12 12:59:43;;;;;;;2.87;1.83;;;;;;;;;;5048323;28;20412;-74
2024/02/12 13:02:09;;;;;;;3.73;1.90;;;;;;;;;;5048200;28;20892;-73
2024/02/12 13:04:39;;;;;;;5.70;2.13;;;;;;;;;;5048105;28;20424;-74
2024/02/12 13:07:06;;;;;;;1.80;1.50;;;;;;;;;;5027359;28;20409;-75
2024/02/12 13:09:32;;;;;;;2.53;1.67;;;;;;;;;;5046272;28;20415;-75
2024/02/12 13:11:59;;;;;;;3.13;1.70;;;;;;;;;;5051746;28;20431;-75
2024/02/12 13:14:25;;;;;;;2.23;1.60;;;;;;;;;;5035759;28;20444;-74
2024/02/12 13:16:51;;;;;;;3.43;2.20;;;;;;;;;;5034435;28;20417;-75
2024/02/12 13:19:18;;;;;;;4.30;2.00;;;;;;;;;;5034911;28;20778;-73
2024/02/12 13:21:44;;;;;;;5.30;2.10;;;;;;;;;;5024151;28;20469;-73
2024/02/12 13:24:14;;;;;;;1.60;1.40;;;;;;;;;;5015352;28;20517;-73
2024/02/12 13:26:40;;;;;;;4.50;2.07;;;;;;;;;;5014579;28;20407;-73
2024/02/12 13:29:06;;;;;;;6.60;1.70;;;;;;;;;;5014764;28;20421;-74
2024/02/12 13:31:36;;;;;;;2.67;1.50;;;;;;;;;;5019336;28;20449;-74
2024/02/12 13:34:02;;;;;;;3.33;1.93;;;;;;;;;;5034031;28;20440;-74
2024/02/12 13:36:30;;;;;;;12.97;1.57;;;;;;;;;;5034689;28;20416;-74
2024/02/12 13:38:56;;;;;;;1.73;1.43;;;;;;;;;;5027859;28;20855;-73
2024/02/12 13:41:22;;;;;;;3.67;2.20;;;;;;;;;;5036744;28;20550;-72
2024/02/12 13:43:48;;;;;;;4.93;1.90;;;;;;;;;;5033952;28;20429;-73
2024/02/12 13:46:14;;;;;;;3.97;1.70;;;;;;;;;;5032730;28;20479;-72
2024/02/12 13:48:43;;;;;;;4.80;1.57;;;;;;;;;;5046755;28;20807;-72
2024/02/12 13:51:09;;;;;;;5.70;2.20;;;;;;;;;;5043683;28;20414;-73
2024/02/12 13:53:35;;;;;;;1.93;1.77;;;;;;;;;;5033883;28;20485;-73
2024/02/12 13:56:01;;;;;;;11.03;2.77;;;;;;;;;;5033923;28;20551;-75
2024/02/12 13:58:28;;;;;;;5.67;2.20;;;;;;;;;;5033728;28;20825;-72
2024/02/12 14:00:54;;;;;;;6.40;1.87;;;;;;;;;;5033373;28;20416;-74
2024/02/12 14:03:20;;;;;;;2.50;1.70;;;;;;;;;;5033916;28;20401;-72
2024/02/12 14:05:46;;;;;;;6.27;2.33;;;;;;;;;;5032905;28;20419;-73
2024/02/12 14:08:12;;;;;;;2.93;2.23;;;;;;;;;;5033485;28;20607;-72
2024/02/12 14:10:38;;;;;;;7.77;1.90;;;;;;;;;;5025023;28;20935;-73
2024/02/12 14:13:04;;;;;;;3.67;1.73;;;;;;;;;;5013830;28;20440;-72
2024/02/12 14:15:30;;;;;;;6.43;2.43;;;;;;;;;;5013536;28;20454;-73
2024/02/12 14:17:56;;;;;;;3.50;2.20;;;;;;;;;;5013535;28;20414;-72
2024/02/12 14:20:25;;;;;;;5.73;2.30;;;;;;;;;;5013669;28;20422;-73
2024/02/12 14:22:52;;;;;;;4.33;2.10;;;;;;;;;;5013708;28;20462;-71
2024/02/12 14:25:19;;;;;;;5.20;1.87;;;;;;;;;;5012516;28;20437;-71
2024/02/12 14:27:45;;;;;;;4.33;1.97;;;;;;;;;;5013393;28;20402;-72
2024/02/12 14:30:14;;;;;;;4.43;2.40;;;;;;;;;;5013248;28;20410;-71
2024/02/12 14:32:42;;;;;;;4.57;2.17;;;;;;;;;;5013564;28;20776;-71
2024/02/12 14:35:09;;;;;;;6.63;2.13;;;;;;;;;;5013148;28;20453;-71
2024/02/12 14:37:35;;;;;;;5.60;2.03;;;;;;;;;;5013510;28;20513;-73
2024/02/12 14:40:05;;;;;;;3.63;1.77;;;;;;;;;;5016936;28;20417;-73
2024/02/12 14:42:35;;;;;;;4.60;2.33;;;;;;;;;;5032968;28;20461;-74
2024/02/12 14:45:11;;;;;;;7.13;1.97;;;;;;;;;;5032843;28;20520;-73
2024/02/12 14:47:47;;;;;;;4.40;1.93;;;;;;;;;;5032948;28;20412;-73
2024/02/12 14:50:16;;;;;;;5.37;1.80;;;;;;;;;;5032893;28;20772;-73
2024/02/12 14:52:43;;;;;;;8.37;3.00;;;;;;;;;;5031655;28;20424;-73
2024/02/12 14:55:11;;;;;;;3.70;1.70;;;;;;;;;;5024593;28;20438;-72
2024/02/12 14:57:37;;;;;;;4.50;2.20;;;;;;;;;;5015836;28;20500;-72
2024/02/12 15:00:05;;;;;;;4.67;2.13;;;;;;;;;;5032509;28;20424;-73
2024/02/12 15:02:31;;;;;;;6.23;2.30;;;;;;;;;;5032961;28;20595;-73
2024/02/12 15:04:57;;;;;;;8.57;2.30;;;;;;;;;;5032664;28;20499;-72
2024/02/12 15:07:24;;;;;;;5.33;1.80;;;;;;;;;;5032522;28;20866;-72
2024/02/12 15:09:50;;;;;;;8.60;2.07;;;;;;;;;;5027617;28;20416;-73
2024/02/12 15:12:23;;;;;;;2.33;1.73;;;;;;;;;;5013180;28;20410;-72
2024/02/12 15:14:49;;;;;;;3.27;1.57;;;;;;;;;;5026163;28;20457;-73
2024/02/12 15:17:16;;;;;;;3.93;1.70;;;;;;;;;;5032662;28;20425;-72
2024/02/12 15:19:46;;;;;;;3.83;1.70;;;;;;;;;;5032096;28;20419;-72
2024/02/12 15:22:12;;;;;;;2.10;1.63;;;;;;;;;;5031150;28;20469;-73
2024/02/12 15:24:39;;;;;;;2.60;1.30;;;;;;;;;;5030564;28;20433;-73
2024/02/12 15:27:10;;;;;;;4.70;2.63;;;;;;;;;;5032873;28;20401;-73
2024/02/12 15:29:39;;;;;;;3.43;2.13;;;;;;;;;;5032416;28;20398;-73
2024/02/12 15:32:06;;;;;;;8.53;1.53;;;;;;;;;;5031714;28;20414;-73
2024/02/12 15:34:34;;;;;;;3.40;1.83;;;;;;;;;;5031950;28;20457;-73
2024/02/12 15:37:00;;;;;;;7.50;3.37;;;;;;;;;;5031849;28;20417;-73
2024/02/12 15:39:26;;;;;;;3.90;1.73;;;;;;;;;;5029211;28;20534;-73
2024/02/12 15:41:52;;;;;;;7.00;1.70;;;;;;;;;;5029917;28;20464;-75
2024/02/12 15:44:18;;;;;;;2.30;1.73;;;;;;;;;;5031579;28;20432;-73
2024/02/12 15:46:44;;;;;;;3.70;1.50;;;;;;;;;;5031710;28;20935;-74
2024/02/12 15:49:10;;;;;;;11.20;1.60;;;;;;;;;;5031983;28;20904;-73
2024/02/12 15:51:36;;;;;;;1.60;1.43;;;;;;;;;;5031498;28;20425;-73
2024/02/12 15:54:03;;;;;;;4.87;1.60;;;;;;;;;;5031848;28;20428;-73
2024/02/12 15:56:31;;;;;;;5.40;2.10;;;;;;;;;;5031851;28;20436;-73
2024/02/12 15:58:57;;;;;;;2.50;1.47;;;;;;;;;;5016113;28;20425;-72
2024/02/12 16:01:26;;;;;;;2.10;1.40;;;;;;;;;;5024405;28;20465;-73
2024/02/12 16:03:53;;;;;;;1.80;1.50;;;;;;;;;;5031907;28;20452;-72
2024/02/12 16:06:19;;;;;;;2.93;1.60;;;;;;;;;;5031918;28;20451;-74
2024/02/12 16:08:45;;;;;;;3.33;1.50;;;;;;;;;;5031846;28;20834;-72
2024/02/12 16:11:12;;;;;;;1.90;1.63;;;;;;;;;;5031641;28;20938;-73
2024/02/12 16:13:38;;;;;;;1.93;1.40;;;;;;;;;;5031785;28;20441;-73
2024/02/12 16:16:06;;;;;;;4.43;1.97;;;;;;;;;;5018584;28;20952;-74
2024/02/12 16:18:32;;;;;;;11.50;4.67;;;;;;;;;;5011913;28;20406;-74
2024/02/12 16:20:58;;;;;;;5.43;2.03;;;;;;;;;;5029330;28;20486;-73
2024/02/12 16:23:27;;;;;;;9.53;2.80;;;;;;;;;;5052070;28;20462;-73
2024/02/12 16:25:53;;;;;;;9.67;2.97;;;;;;;;;;5051456;28;20435;-73
2024/02/12 16:28:21;;;;;;;5.80;1.90;;;;;;;;;;5052011;28;20423;-73
2024/02/12 16:30:47;;;;;;;2.40;1.83;;;;;;;;;;5051311;28;20420;-75
2024/02/12 16:33:13;;;;;;;6.60;1.87;;;;;;;;;;5025274;28;20434;-74
2024/02/12 16:35:39;;;;;;;5.10;1.90;;;;;;;;;;5017206;28;20441;-73
2024/02/12 16:38:08;;;;;;;4.77;2.33;;;;;;;;;;5012883;28;20448;-73
2024/02/12 16:40:34;;;;;;;4.13;2.13;;;;;;;;;;5015257;28;20830;-74
2024/02/12 16:43:04;;;;;;;2.17;1.70;;;;;;;;;;5031493;28;21037;-71
2024/02/12 16:45:30;;;;;;;3.40;2.90;;;;;;;;;;5030215;28;20451;-72
2024/02/12 16:47:57;;;;;;;8.27;2.10;;;;;;;;;;5031688;28;20447;-70
2024/02/12 16:50:24;;;;;;;9.73;2.43;;;;;;;;;;5035078;28;20500;-70
2024/02/12 16:52:52;;;;;;;2.70;1.60;;;;;;;;;;5035136;28;20776;-74
2024/02/12 16:55:18;;;;;;;3.97;1.93;;;;;;;;;;5033885;28;20984;-75
2024/02/12 16:57:44;;;;;;;2.37;1.50;;;;;;;;;;5034889;28;20409;-75
2024/02/12 17:00:12;;;;;;;4.97;2.10;;;;;;;;;;5035091;28;20415;-75
2024/02/12 17:02:39;;;;;;;2.50;1.60;;;;;;;;;;5033803;28;20575;-75
2024/02/12 17:05:05;;;;;;;3.80;2.03;;;;;;;;;;5034903;28;20428;-75
2024/02/12 17:07:31;;;;;;;6.27;2.30;;;;;;;;;;5034945;28;20413;-76
2024/02/12 17:09:57;;;;;;;7.10;1.90;;;;;;;;;;5023234;28;20923;-75
2024/02/12 17:12:26;;;;;;;3.83;2.47;;;;;;;;;;5034793;28;20449;-76
2024/02/12 17:14:53;;;;;;;5.93;1.90;;;;;;;;;;5034839;28;20449;-74
2024/02/12 17:17:19;;;;;;;4.83;1.80;;;;;;;;;;5050710;28;20415;-74
2024/02/12 17:19:46;;;;;;;11.20;1.87;;;;;;;;;;5054671;28;20409;-75
2024/02/12 17:22:13;;;;;;;7.97;4.50;;;;;;;;;;5053368;28;20459;-74
2024/02/12 17:24:39;;;;;;;4.93;2.10;;;;;;;;;;5054172;28;20432;-75
2024/02/12 17:27:05;;;;;;;8.50;2.33;;;;;;;;;;5054462;28;20416;-75
2024/02/12 17:29:32;;;;;;;7.13;2.00;;;;;;;;;;5054715;28;20647;-76
2024/02/12 17:31:58;;;;;;;4.13;2.03;;;;;;;;;;5054430;28;20415;-74
2024/02/12 17:34:25;;;;;;;5.67;2.37;;;;;;;;;;5054288;28;20420;-75
2024/02/12 17:36:51;;;;;;;12.40;2.50;;;;;;;;;;5054377;28;20849;-75
2024/02/12 17:39:19;;;;;;;4.97;2.13;;;;;;;;;;5024909;28;20921;-75
2024/02/12 17:41:45;;;;;;;4.27;2.33;;;;;;;;;;5033074;28;20504;-75
2024/02/12 17:44:13;;;;;;;5.17;2.23;;;;;;;;;;5034455;28;20490;-74
2024/02/12 17:46:39;;;;;;;10.47;2.30;;;;;;;;;;5034448;28;20496;-76
2024/02/12 17:49:06;;;;;;;4.00;2.50;;;;;;;;;;5034398;28;20920;-75
2024/02/12 17:51:32;;;;;;;6.60;2.00;;;;;;;;;;5034090;28;20410;-73
2024/02/12 17:54:01;;;;;;;6.47;2.30;;;;;;;;;;5033984;28;20924;-74
2024/02/12 17:56:28;;;;;;;7.27;2.93;;;;;;;;;;5032490;28;20910;-71
2024/02/12 17:58:56;;;;;;;7.87;2.70;;;;;;;;;;5022732;28;20567;-70
2024/02/12 18:01:23;;;;;;;7.67;2.60;;;;;;;;;;5033747;28;20556;-72
2024/02/12 18:03:50;;;;;;;5.83;2.30;;;;;;;;;;5018640;28;20441;-73
2024/02/12 18:06:16;;;;;;;2.67;2.47;;;;;;;;;;5014132;28;20993;-71
2024/02/12 18:08:42;;;;;;;5.10;2.30;;;;;;;;;;5015780;28;20480;-72
2024/02/12 18:11:08;;;;;;;10.43;2.27;;;;;;;;;;5013969;28;20406;-70
2024/02/12 18:13:34;;;;;;;4.47;2.03;;;;;;;;;;5014531;28;20412;-70
2024/02/12 18:16:01;;;;;;;6.03;2.53;;;;;;;;;;5019304;22;20509;-72
2024/02/12 18:18:27;;;;;;;5.17;2.10;;;;;;;;;;4993672;28;20411;-72
2024/02/12 18:20:53;;;;;;;7.67;2.33;;;;;;;;;;4992514;28;20411;-72
2024/02/12 18:23:22;;;;;;;5.80;3.03;;;;;;;;;;4992758;28;20470;-71
2024/02/12 18:25:48;;;;;;;10.83;4.20;;;;;;;;;;4992751;28;20439;-71
2024/02/12 18:28:14;;;;;;;4.57;2.90;;;;;;;;;;4994053;28;20422;-72
2024/02/12 18:30:39;;;;;;;6.87;2.43;;;;;;;;;;4993446;28;20433;-71
2024/02/12 18:33:06;;;;;;;6.20;2.70;;;;;;;;;;4993829;28;20426;-72
2024/02/12 18:35:32;;;;;;;11.07;3.10;;;;;;;;;;4993722;28;20625;-72
2024/02/12 18:37:58;;;;;;;5.43;2.97;;;;;;;;;;4992505;28;20419;-72
2024/02/12 18:40:25;;;;;;;6.20;2.27;;;;;;;;;;4993599;28;20419;-72
2024/02/12 18:42:51;;;;;;;7.87;2.67;;;;;;;;;;4993588;28;20462;-71
2024/02/12 18:45:16;;;;;;;7.07;2.73;;;;;;;;;;4993495;28;20451;-72
2024/02/12 18:47:47;;;;;;;4.70;2.70;;;;;;;;;;4991754;28;20435;-71
2024/02/12 18:50:13;;;;;;;6.27;3.23;;;;;;;;;;4993403;28;20422;-70
2024/02/12 18:52:39;;;;;;;10.23;3.47;;;;;;;;;;4993277;28;20426;-70
2024/02/12 18:55:05;;;;;;;16.97;4.50;;;;;;;;;;4993250;28;20447;-70
2024/02/12 18:57:32;;;;;;;12.50;4.10;;;;;;;;;;4993252;28;20423;-71
2024/02/12 18:59:58;;;;;;;7.20;3.70;;;;;;;;;;4991224;28;20520;-71
2024/02/12 19:02:24;;;;;;;15.67;3.70;;;;;;;;;;4989816;28;20466;-70
2024/02/12 19:04:50;;;;;;;8.10;3.30;;;;;;;;;;4992245;28;21004;-71
2024/02/12 19:07:19;;;;;;;8.53;3.30;;;;;;;;;;4992503;28;20974;-71
2024/02/12 19:09:46;;;;;;;6.00;2.87;;;;;;;;;;4984927;28;20426;-72
2024/02/12 19:12:12;;;;;;;8.23;3.07;;;;;;;;;;4991343;28;20485;-71
2024/02/12 19:14:37;;;;;;;13.33;3.93;;;;;;;;;;4992569;28;20531;-71
2024/02/12 19:17:04;;;;;;;6.50;2.60;;;;;;;;;;4993024;28;20990;-72
2024/02/12 19:19:34;;;;;;;9.90;2.87;;;;;;;;;;4991607;28;20514;-72
2024/02/12 19:22:04;;;;;;;5.93;3.10;;;;;;;;;;4992907;28;20574;-70
2024/02/12 19:24:34;;;;;;;8.80;2.97;;;;;;;;;;4992650;28;20431;-71
2024/02/12 19:27:00;;;;;;;12.40;3.13;;;;;;;;;;4992900;28;20411;-76
2024/02/12 19:29:26;;;;;;;8.83;3.37;;;;;;;;;;4993177;28;20457;-76
2024/02/12 19:31:52;;;;;;;5.23;2.67;;;;;;;;;;4992636;28;20418;-76
2024/02/12 19:34:18;;;;;;;6.60;3.10;;;;;;;;;;4992597;28;20566;-76
2024/02/12 19:36:44;;;;;;;6.80;3.23;;;;;;;;;;4992658;28;20427;-76
2024/02/12 19:39:12;;;;;;;7.20;2.80;;;;;;;;;;4992675;28;20423;-75
2024/02/12 19:41:38;;;;;;;6.90;2.73;;;;;;;;;;5000005;28;21012;-75
2024/02/12 19:44:04;;;;;;;13.97;3.20;;;;;;;;;;4992152;28;20442;-76
2024/02/12 19:46:30;;;;;;;9.03;3.30;;;;;;;;;;4990797;28;20513;-76
2024/02/12 19:48:56;;;;;;;13.63;4.03;;;;;;;;;;4992185;28;20423;-75
2024/02/12 19:51:22;;;;;;;9.50;2.73;;;;;;;;;;4992059;28;21004;-76
2024/02/12 19:53:48;;;;;;;8.40;2.90;;;;;;;;;;4992678;28;20465;-75
2024/02/12 19:56:14;;;;;;;13.07;3.60;;;;;;;;;;4999914;28;20480;-75
2024/02/12 19:58:41;;;;;;;14.10;3.83;;;;;;;;;;4995917;28;20431;-75
2024/02/12 20:01:07;;;;;;;13.60;4.30;;;;;;;;;;4996167;28;20419;-70
2024/02/12 20:03:33;;;;;;;8.70;4.10;;;;;;;;;;4987199;28;20478;-71
2024/02/12 20:05:59;;;;;;;8.60;3.50;;;;;;;;;;4987762;28;20538;-71
2024/02/12 20:08:25;;;;;;;12.63;4.43;;;;;;;;;;5001724;28;20418;-71
2024/02/12 20:10:51;;;;;;;9.63;4.33;;;;;;;;;;5000400;28;20427;-70
2024/02/12 20:13:17;;;;;;;10.50;3.90;;;;;;;;;;4993506;28;20452;-69
2024/02/12 20:15:43;;;;;;;23.23;4.30;;;;;;;;;;4992073;28;20474;-71
2024/02/12 20:18:09;;;;;;;13.63;3.37;;;;;;;;;;4991101;28;20430;-71
2024/02/12 20:20:38;;;;;;;8.40;3.03;;;;;;;;;;4991484;28;20459;-71
2024/02/12 20:23:06;;;;;;;7.30;3.37;;;;;;;;;;4992015;28;20470;-71
2024/02/12 20:25:32;;;;;;;8.53;3.43;;;;;;;;;;4996016;28;20474;-70
2024/02/12 20:27:58;;;;;;;11.53;3.20;;;;;;;;;;4996191;28;20825;-71
2024/02/12 20:30:24;;;;;;;4.30;2.30;;;;;;;;;;4993282;28;20419;-71
2024/02/12 20:32:54;;;;;;;7.10;3.20;;;;;;;;;;5008111;28;20451;-69
2024/02/12 20:35:20;;;;;;;4.90;2.90;;;;;;;;;;5007391;28;20441;-70
2024/02/12 20:37:46;;;;;;;14.40;3.80;;;;;;;;;;4993709;28;20420;-71
2024/02/12 20:40:14;;;;;;;7.20;3.30;;;;;;;;;;4995684;28;20433;-71